Time;durP1;ratioP1;P1;durP2;ratioP2;P2;SDS_P1;SDS_P2;PMS_P1;PMS_P2;Temp;Humidity;BMP_temperature;BMP_pressure;BME280_temperature;BME280_humidity;BME280_pressure;Samples;Min_cycle;Max_cycle;Signal;HPM_P1;HPM_P2
2019/05/18 00:01:10;;;;;;;16.8;15.1;;;;;;;;;;;;;
2019/05/18 00:03:35;;;;;;;12.5;11.4;;;;;;;;;;;;;
2019/05/18 00:06:02;;;;;;;11.3;10.2;;;;;;;;;;;;;
2019/05/18 00:08:27;;;;;;;9.8;8.9;;;;;;;;;;;;;
2019/05/18 00:10:54;;;;;;;9.2;8.4;;;;;;;;;;;;;
2019/05/18 00:13:20;;;;;;;9;8.1;;;;;;;;;;;;;
2019/05/18 00:15:45;;;;;;;9.5;8.7;;;;;;;;;;;;;
2019/05/18 00:18:10;;;;;;;9.3;8.5;;;;;;;;;;;;;
2019/05/18 00:20:35;;;;;;;10.8;9.8;;;;;;;;;;;;;
2019/05/18 00:23:00;;;;;;;9.1;8.3;;;;;;;;;;;;;
2019/05/18 00:25:25;;;;;;;9.6;8.8;;;;;;;;;;;;;
2019/05/18 00:27:51;;;;;;;12.5;11.3;;;;;;;;;;;;;
2019/05/18 00:30:16;;;;;;;11.1;10.1;;;;;;;;;;;;;
2019/05/18 00:32:42;;;;;;;15.2;13.8;;;;;;;;;;;;;
2019/05/18 00:35:07;;;;;;;11.6;10.5;;;;;;;;;;;;;
2019/05/18 00:37:32;;;;;;;18;16.4;;;;;;;;;;;;;
2019/05/18 00:39:57;;;;;;;12.8;11.7;;;;;;;;;;;;;
2019/05/18 00:42:22;;;;;;;10.4;9.5;;;;;;;;;;;;;
2019/05/18 00:44:47;;;;;;;11.7;10.8;;;;;;;;;;;;;
2019/05/18 00:47:12;;;;;;;12.3;11.2;;;;;;;;;;;;;
2019/05/18 00:49:38;;;;;;;13.2;12;;;;;;;;;;;;;
2019/05/18 00:52:02;;;;;;;11.6;10.5;;;;;;;;;;;;;
2019/05/18 00:54:27;;;;;;;13;11.9;;;;;;;;;;;;;
2019/05/18 00:56:53;;;;;;;11.8;10.7;;;;;;;;;;;;;
2019/05/18 00:59:18;;;;;;;12.8;11.7;;;;;;;;;;;;;
2019/05/18 01:01:43;;;;;;;14.9;13.6;;;;;;;;;;;;;
2019/05/18 01:04:09;;;;;;;13.7;12.5;;;;;;;;;;;;;
2019/05/18 01:06:33;;;;;;;14.9;13.6;;;;;;;;;;;;;
2019/05/18 01:08:58;;;;;;;17.4;15.5;;;;;;;;;;;;;
2019/05/18 01:11:25;;;;;;;16.8;15.2;;;;;;;;;;;;;
2019/05/18 01:13:50;;;;;;;23.7;21.5;;;;;;;;;;;;;
2019/05/18 01:16:15;;;;;;;16.6;15.1;;;;;;;;;;;;;
2019/05/18 01:18:40;;;;;;;18.9;17.1;;;;;;;;;;;;;
2019/05/18 01:21:05;;;;;;;20.2;18.2;;;;;;;;;;;;;
2019/05/18 01:23:30;;;;;;;21.8;19.7;;;;;;;;;;;;;
2019/05/18 01:25:57;;;;;;;20.3;18.5;;;;;;;;;;;;;
2019/05/18 01:28:22;;;;;;;20.5;18.6;;;;;;;;;;;;;
2019/05/18 01:30:57;;;;;;;22;19.9;;;;;;;;;;;;;
2019/05/18 01:33:22;;;;;;;61.6;45.3;;;;;;;;;;;;;
2019/05/18 01:35:47;;;;;;;23.9;21.5;;;;;;;;;;;;;
2019/05/18 01:38:13;;;;;;;24.1;22;;;;;;;;;;;;;
2019/05/18 01:40:38;;;;;;;22;20.1;;;;;;;;;;;;;
2019/05/18 01:43:05;;;;;;;29.7;26.9;;;;;;;;;;;;;
2019/05/18 01:45:30;;;;;;;29.9;27.2;;;;;;;;;;;;;
2019/05/18 01:47:56;;;;;;;21.3;19.4;;;;;;;;;;;;;
2019/05/18 01:50:21;;;;;;;23.2;21.1;;;;;;;;;;;;;
2019/05/18 01:52:47;;;;;;;28.5;25.8;;;;;;;;;;;;;
2019/05/18 01:55:12;;;;;;;23.6;21.5;;;;;;;;;;;;;
2019/05/18 01:57:38;;;;;;;52.9;47.5;;;;;;;;;;;;;
2019/05/18 02:00:03;;;;;;;64.1;56.2;;;;;;;;;;;;;
2019/05/18 02:02:29;;;;;;;40.7;36.5;;;;;;;;;;;;;
2019/05/18 02:04:54;;;;;;;35.2;31.8;;;;;;;;;;;;;
2019/05/18 02:07:19;;;;;;;34.1;30.9;;;;;;;;;;;;;
2019/05/18 02:09:44;;;;;;;29.2;26.5;;;;;;;;;;;;;
2019/05/18 02:12:09;;;;;;;47.9;42.1;;;;;;;;;;;;;
2019/05/18 02:14:35;;;;;;;70.5;56.1;;;;;;;;;;;;;
2019/05/18 02:17:00;;;;;;;33.5;30.3;;;;;;;;;;;;;
2019/05/18 02:19:25;;;;;;;29.9;27.1;;;;;;;;;;;;;
2019/05/18 02:21:50;;;;;;;28.5;25.7;;;;;;;;;;;;;
2019/05/18 02:24:15;;;;;;;29.8;26.9;;;;;;;;;;;;;
2019/05/18 02:26:40;;;;;;;25;22.7;;;;;;;;;;;;;
2019/05/18 02:29:05;;;;;;;24.4;22.1;;;;;;;;;;;;;
2019/05/18 02:31:30;;;;;;;20.8;19;;;;;;;;;;;;;
2019/05/18 02:33:55;;;;;;;28.2;25.6;;;;;;;;;;;;;
2019/05/18 02:36:20;;;;;;;28.8;26;;;;;;;;;;;;;
2019/05/18 02:38:46;;;;;;;26.5;23.9;;;;;;;;;;;;;
2019/05/18 02:41:11;;;;;;;19.9;18;;;;;;;;;;;;;
2019/05/18 02:43:36;;;;;;;49.4;40.7;;;;;;;;;;;;;
2019/05/18 02:46:01;;;;;;;21.8;19.7;;;;;;;;;;;;;
2019/05/18 02:48:27;;;;;;;30.8;27.7;;;;;;;;;;;;;
2019/05/18 02:50:52;;;;;;;22.5;20.3;;;;;;;;;;;;;
2019/05/18 02:53:17;;;;;;;43.1;35.8;;;;;;;;;;;;;
2019/05/18 02:55:42;;;;;;;20;18.1;;;;;;;;;;;;;
2019/05/18 02:58:07;;;;;;;25.2;22.8;;;;;;;;;;;;;
2019/05/18 03:00:32;;;;;;;20.2;18.3;;;;;;;;;;;;;
2019/05/18 03:02:57;;;;;;;23.2;20.8;;;;;;;;;;;;;
2019/05/18 03:05:23;;;;;;;28.8;26;;;;;;;;;;;;;
2019/05/18 03:07:49;;;;;;;36;30.1;;;;;;;;;;;;;
2019/05/18 03:10:14;;;;;;;28.6;25.6;;;;;;;;;;;;;
2019/05/18 03:12:39;;;;;;;19.7;17.9;;;;;;;;;;;;;
2019/05/18 03:15:04;;;;;;;19.4;17.6;;;;;;;;;;;;;
2019/05/18 03:17:29;;;;;;;31;27.6;;;;;;;;;;;;;
2019/05/18 03:19:55;;;;;;;31.9;28.4;;;;;;;;;;;;;
2019/05/18 03:22:20;;;;;;;17.3;15.7;;;;;;;;;;;;;
2019/05/18 03:24:45;;;;;;;16.5;15;;;;;;;;;;;;;
2019/05/18 03:27:10;;;;;;;19.4;17.5;;;;;;;;;;;;;
2019/05/18 03:29:35;;;;;;;19.4;17.6;;;;;;;;;;;;;
2019/05/18 03:32:01;;;;;;;16.7;15.2;;;;;;;;;;;;;
2019/05/18 03:34:26;;;;;;;17.8;16;;;;;;;;;;;;;
2019/05/18 03:36:51;;;;;;;18.9;17;;;;;;;;;;;;;
2019/05/18 03:39:20;;;;;;;15.4;14;;;;;;;;;;;;;
2019/05/18 03:41:45;;;;;;;18.5;16.6;;;;;;;;;;;;;
2019/05/18 03:44:10;;;;;;;21;18.9;;;;;;;;;;;;;
2019/05/18 03:46:35;;;;;;;17.3;15.6;;;;;;;;;;;;;
2019/05/18 03:49:00;;;;;;;16.2;14.8;;;;;;;;;;;;;
2019/05/18 03:51:26;;;;;;;21.8;19.4;;;;;;;;;;;;;
2019/05/18 03:53:51;;;;;;;18.4;16.6;;;;;;;;;;;;;
2019/05/18 03:56:16;;;;;;;16.1;14.6;;;;;;;;;;;;;
2019/05/18 03:58:41;;;;;;;17.8;16;;;;;;;;;;;;;
2019/05/18 04:02:28;;;;;;;19.5;17.6;;;;;;;7.66;100;948.9911;;;;
2019/05/18 04:04:52;;;;;;;18.7;16.9;;;;;;;7.68;100;948.9247;;;;
2019/05/18 04:07:17;;;;;;;19.7;17.7;;;;;;;7.72;100;948.9166;;;;
2019/05/18 04:09:43;;;;;;;26.8;20.6;;;;;;;7.7;100;948.9272;;;;
2019/05/18 04:12:09;;;;;;;19.2;17;;;;;;;7.73;100;948.949;;;;
2019/05/18 04:14:34;;;;;;;19.3;17.1;;;;;;;7.75;100;948.9476;;;;
2019/05/18 04:16:59;;;;;;;17.3;15.6;;;;;;;7.8;100;949.0689;;;;
2019/05/18 04:19:25;;;;;;;16.6;15;;;;;;;7.84;100;949.0432;;;;
2019/05/18 04:21:50;;;;;;;18.5;16.6;;;;;;;7.94;100;949.0917;;;;
2019/05/18 04:24:15;;;;;;;18.6;14.9;;;;;;;8;100;949.0632;;;;
2019/05/18 04:26:43;;;;;;;14.4;13.1;;;;;;;8.01;100;949.024;;;;
2019/05/18 04:29:08;;;;;;;13.5;12.3;;;;;;;8;100;949.0593;;;;
2019/05/18 04:31:33;;;;;;;14.5;13.1;;;;;;;8.02;100;949.0784;;;;
2019/05/18 04:33:58;;;;;;;15.2;13.7;;;;;;;8.12;100;949.1436;;;;
2019/05/18 04:36:23;;;;;;;20.9;18.9;;;;;;;8.22;100;949.1275;;;;
2019/05/18 04:38:49;;;;;;;20.9;18.8;;;;;;;8.23;100;949.0804;;;;
2019/05/18 04:41:16;;;;;;;22.3;19.9;;;;;;;8.21;100;949.2009;;;;
2019/05/18 04:43:41;;;;;;;15.5;14.1;;;;;;;8.31;100;949.1131;;;;
2019/05/18 04:46:07;;;;;;;14.1;12.8;;;;;;;8.38;100;949.1361;;;;
2019/05/18 04:48:32;;;;;;;16;14.5;;;;;;;8.48;100;949.1541;;;;
2019/05/18 04:50:57;;;;;;;14.4;13;;;;;;;8.67;100;949.1832;;;;
2019/05/18 04:53:25;;;;;;;14.5;13.1;;;;;;;8.75;100;949.153;;;;
2019/05/18 04:55:50;;;;;;;14.5;13.2;;;;;;;8.82;100;949.153;;;;
2019/05/18 04:58:17;;;;;;;14.9;13.5;;;;;;;9;100;949.1503;;;;
2019/05/18 05:00:42;;;;;;;16.4;14.8;;;;;;;9.07;100;949.1454;;;;
2019/05/18 05:03:07;;;;;;;14.4;12.9;;;;;;;9.33;99.50781;949.2042;;;;
2019/05/18 05:05:32;;;;;;;15;13.7;;;;;;;9.42;99.58398;949.2198;;;;
2019/05/18 05:08:06;;;;;;;14.8;13.4;;;;;;;9.57;99.56348;949.2059;;;;
2019/05/18 05:10:44;;;;;;;15.9;14.4;;;;;;;9.73;99.16113;949.2004;;;;
2019/05/18 05:13:09;;;;;;;16.7;15.1;;;;;;;9.72;98.70996;949.2093;;;;
2019/05/18 05:15:34;;;;;;;16.8;15.2;;;;;;;9.76;98.63965;949.0986;;;;
2019/05/18 05:17:59;;;;;;;16.2;14.8;;;;;;;9.79;98.05664;949.1383;;;;
2019/05/18 05:20:24;;;;;;;13.3;12.1;;;;;;;9.92;98.4668;949.1139;;;;
2019/05/18 05:22:52;;;;;;;15;13.7;;;;;;;9.92;97.55664;949.1012;;;;
2019/05/18 05:25:17;;;;;;;14.5;13.2;;;;;;;10.13;97.38379;949.1283;;;;
2019/05/18 05:27:42;;;;;;;14.5;13.2;;;;;;;10.07;97.00293;949.1722;;;;
2019/05/18 05:30:09;;;;;;;14.6;13.3;;;;;;;10.13;96.68066;949.1785;;;;
2019/05/18 05:32:34;;;;;;;14.8;13.5;;;;;;;10.22;96.89746;949.1929;;;;
2019/05/18 05:35:02;;;;;;;13.4;12.2;;;;;;;10.22;96.42578;949.1919;;;;
2019/05/18 05:37:27;;;;;;;14.1;13;;;;;;;10.28;96.18457;949.2115;;;;
2019/05/18 05:39:53;;;;;;;14;12.8;;;;;;;10.36;95.91602;949.2525;;;;
2019/05/18 05:42:18;;;;;;;15.9;14.3;;;;;;;10.34;95.67969;949.2335;;;;
2019/05/18 05:44:43;;;;;;;13.4;12.2;;;;;;;10.55;96.82129;949.243;;;;
2019/05/18 05:47:10;;;;;;;14.6;13.2;;;;;;;10.63;95.59473;949.2031;;;;
2019/05/18 05:49:34;;;;;;;14.5;13.3;;;;;;;10.69;95.67578;949.2595;;;;
2019/05/18 05:52:00;;;;;;;16.1;14.6;;;;;;;10.84;95.40918;949.279;;;;
2019/05/18 05:54:25;;;;;;;14.4;13.1;;;;;;;10.88;95.0957;949.2999;;;;
2019/05/18 05:56:50;;;;;;;15.9;14.4;;;;;;;10.96;94.75488;949.3279;;;;
2019/05/18 05:59:15;;;;;;;15;13.7;;;;;;;11.14;94.2168;949.3101;;;;
2019/05/18 06:01:40;;;;;;;16.7;15.2;;;;;;;11.17;92.65137;949.3281;;;;
2019/05/18 06:04:06;;;;;;;15.5;13.8;;;;;;;11.07;90.84863;949.307;;;;
2019/05/18 06:06:31;;;;;;;15.3;14;;;;;;;11.09;91.27051;949.3296;;;;
2019/05/18 06:08:58;;;;;;;15;13.6;;;;;;;11.29;91.78809;949.3256;;;;
2019/05/18 06:11:23;;;;;;;16.2;14.8;;;;;;;11.32;92.19824;949.2704;;;;
2019/05/18 06:13:50;;;;;;;16.6;15.1;;;;;;;11.22;92.92676;949.2967;;;;
2019/05/18 06:16:15;;;;;;;16.3;14.7;;;;;;;11.38;91.71387;949.2974;;;;
2019/05/18 06:18:40;;;;;;;16.1;14.6;;;;;;;11.43;90.67188;949.3724;;;;
2019/05/18 06:21:05;;;;;;;15.6;14.3;;;;;;;11.45;91.02246;949.3577;;;;
2019/05/18 06:23:32;;;;;;;15.9;14.4;;;;;;;11.56;91.62305;949.3394;;;;
2019/05/18 06:25:57;;;;;;;16.4;14.9;;;;;;;11.74;92.0332;949.3457;;;;
2019/05/18 06:28:22;;;;;;;16.4;14.8;;;;;;;11.62;90.13281;949.2763;;;;
2019/05/18 06:30:50;;;;;;;15;13.6;;;;;;;11.76;90.20801;949.3181;;;;
2019/05/18 06:33:15;;;;;;;15.5;14;;;;;;;11.92;89.16504;949.3158;;;;
2019/05/18 06:35:41;;;;;;;16.4;15;;;;;;;12.08;88.91895;949.3207;;;;
2019/05/18 06:38:06;;;;;;;17.3;15.7;;;;;;;12.26;88.72559;949.3187;;;;
2019/05/18 06:40:33;;;;;;;16.9;15.4;;;;;;;12.3;87.43652;949.373;;;;
2019/05/18 06:42:58;;;;;;;16.6;15.1;;;;;;;12.33;86.25879;949.2972;;;;
2019/05/18 06:45:24;;;;;;;17;15.5;;;;;;;12.39;86.58594;949.3484;;;;
2019/05/18 06:47:49;;;;;;;17.9;16.2;;;;;;;12.51;86.66699;949.3978;;;;
2019/05/18 06:50:19;;;;;;;16.9;15.3;;;;;;;12.53;86.1582;949.4125;;;;
2019/05/18 06:52:44;;;;;;;16.8;15.2;;;;;;;12.72;85.9209;949.4213;;;;
2019/05/18 06:55:11;;;;;;;16.3;14.7;;;;;;;12.53;84.28223;949.4207;;;;
2019/05/18 06:57:46;;;;;;;16.2;14.6;;;;;;;12.65;85.88184;949.4055;;;;
2019/05/18 07:00:11;;;;;;;15.9;14.4;;;;;;;12.73;84.86719;949.3561;;;;
2019/05/18 07:02:36;;;;;;;16.3;14.8;;;;;;;12.87;85.01172;949.4525;;;;
2019/05/18 07:05:01;;;;;;;15.5;14.1;;;;;;;12.93;84.91797;949.4497;;;;
2019/05/18 07:07:26;;;;;;;15.6;14.1;;;;;;;13.1;84.66016;949.4611;;;;
2019/05/18 07:09:51;;;;;;;15.2;13.8;;;;;;;13.19;83.63281;949.428;;;;
2019/05/18 07:12:27;;;;;;;14.9;13.5;;;;;;;13.31;83.96875;949.426;;;;
2019/05/18 07:14:58;;;;;;;15.6;14.2;;;;;;;13.31;83.30664;949.4131;;;;
2019/05/18 07:17:23;;;;;;;15.4;14;;;;;;;13.32;82.49609;949.3685;;;;
2019/05/18 07:19:48;;;;;;;16.2;14.6;;;;;;;13.1;82.32715;949.3463;;;;
2019/05/18 07:22:16;;;;;;;15.3;13.9;;;;;;;13.44;84.80762;949.3563;;;;
2019/05/18 07:24:41;;;;;;;14.2;12.8;;;;;;;13.66;83.03809;949.3353;;;;
2019/05/18 07:27:06;;;;;;;15.9;14.4;;;;;;;13.8;81.79883;949.3553;;;;
2019/05/18 07:29:35;;;;;;;14.2;12.9;;;;;;;13.91;80.38867;949.2717;;;;
2019/05/18 07:32:00;;;;;;;15.6;14;;;;;;;13.92;81.15723;949.2835;;;;
2019/05/18 07:34:25;;;;;;;15;13.6;;;;;;;14.09;78.16602;949.217;;;;
2019/05/18 07:36:50;;;;;;;14.3;13;;;;;;;14.18;78.12012;949.2184;;;;
2019/05/18 07:39:18;;;;;;;15.3;13.9;;;;;;;14.05;80.0293;949.1552;;;;
2019/05/18 07:41:43;;;;;;;14.9;13.5;;;;;;;14.16;81.11914;949.1442;;;;
2019/05/18 07:44:09;;;;;;;14.2;12.9;;;;;;;14.42;78.89844;949.155;;;;
2019/05/18 07:46:34;;;;;;;14.3;12.9;;;;;;;14.5;75.74414;949.132;;;;
2019/05/18 07:49:00;;;;;;;14.5;13;;;;;;;14.73;78.67383;949.1465;;;;
2019/05/18 07:51:25;;;;;;;13.2;12;;;;;;;14.73;73.60645;949.1774;;;;
2019/05/18 07:54:05;;;;;;;14;12.7;;;;;;;14.85;74.8623;949.1733;;;;
2019/05/18 07:56:33;;;;;;;13.1;11.9;;;;;;;14.63;73.47363;949.0961;;;;
2019/05/18 07:58:57;;;;;;;14.4;13;;;;;;;14.69;77;949.0628;;;;
2019/05/18 08:01:22;;;;;;;13.6;12.2;;;;;;;14.83;72.80859;949.124;;;;
2019/05/18 08:03:48;;;;;;;12.8;11.5;;;;;;;15.04;72.93652;949.1631;;;;
2019/05/18 08:06:13;;;;;;;13;11.7;;;;;;;15.12;72.16797;949.1654;;;;
2019/05/18 08:08:38;;;;;;;12.9;11.5;;;;;;;15.1;71.9541;949.0825;;;;
2019/05/18 08:11:03;;;;;;;12.5;11.3;;;;;;;15.28;70.18848;949.1339;;;;
2019/05/18 08:13:31;;;;;;;11.4;10.3;;;;;;;15.39;70.02051;949.1264;;;;
2019/05/18 08:15:56;;;;;;;12.1;11;;;;;;;15.38;71.69922;949.1326;;;;
2019/05/18 08:18:22;;;;;;;12.6;11.3;;;;;;;15.72;70.66699;949.1495;;;;
2019/05/18 08:20:47;;;;;;;11.7;10.5;;;;;;;15.82;68.81445;949.0965;;;;
2019/05/18 08:23:14;;;;;;;11;10;;;;;;;16.31;70.11914;949.0593;;;;
2019/05/18 08:25:39;;;;;;;11.1;10;;;;;;;16.15;66.09668;949.0489;;;;
2019/05/18 08:28:05;;;;;;;10.4;9.4;;;;;;;15.93;65.81836;949.1106;;;;
2019/05/18 08:30:30;;;;;;;11.6;10.5;;;;;;;16.21;65.50977;949.0273;;;;
2019/05/18 08:32:55;;;;;;;12.3;11.1;;;;;;;16.08;68.50488;949.0293;;;;
2019/05/18 08:35:20;;;;;;;11.4;10.3;;;;;;;16.27;66.53613;949.0272;;;;
2019/05/18 08:37:45;;;;;;;11.4;10.3;;;;;;;16.52;63.32129;949.0938;;;;
2019/05/18 08:40:11;;;;;;;11.2;10.1;;;;;;;16.59;62.92285;949.0834;;;;
2019/05/18 08:42:36;;;;;;;11.2;10.1;;;;;;;16.52;62.43164;949.0511;;;;
2019/05/18 08:45:01;;;;;;;11.3;10.3;;;;;;;16.36;61.16895;949.0655;;;;
2019/05/18 08:47:26;;;;;;;10.6;9.6;;;;;;;16.47;63.79492;949.0876;;;;
2019/05/18 08:49:51;;;;;;;11.6;10.5;;;;;;;16.6;67.51074;949.1033;;;;
2019/05/18 08:52:16;;;;;;;11.4;10.4;;;;;;;16.22;62.50781;949.0378;;;;
2019/05/18 08:54:47;;;;;;;10.7;9.7;;;;;;;16.63;64.0752;949.065;;;;
2019/05/18 08:57:18;;;;;;;12.7;11.5;;;;;;;16.84;62.98145;949.0815;;;;
2019/05/18 08:59:43;;;;;;;13.9;12.5;;;;;;;16.9;63.44824;949.0245;;;;
2019/05/18 09:02:08;;;;;;;14;12.6;;;;;;;16.83;63.28418;949.0103;;;;
2019/05/18 09:04:33;;;;;;;15.7;13.1;;;;;;;17.11;61.66309;949.0535;;;;
2019/05/18 09:07:02;;;;;;;13.4;12.1;;;;;;;17.21;60.09277;949.0398;;;;
2019/05/18 09:09:28;;;;;;;14.1;12.8;;;;;;;17.23;61.48047;949.0831;;;;
2019/05/18 09:11:52;;;;;;;15.4;14;;;;;;;16.82;63.22461;949.0977;;;;
2019/05/18 09:14:20;;;;;;;13.4;12.1;;;;;;;17.03;61.58008;949.1138;;;;
2019/05/18 09:16:45;;;;;;;13.9;12.5;;;;;;;17.24;62.34863;949.0341;;;;
2019/05/18 09:19:12;;;;;;;13.7;12.5;;;;;;;17.64;64.5625;949.0519;;;;
2019/05/18 09:21:43;;;;;;;13.7;12.2;;;;;;;17.83;58.8877;949.076;;;;
2019/05/18 09:24:08;;;;;;;12.8;11.6;;;;;;;17.91;61.57422;949.0852;;;;
2019/05/18 09:26:35;;;;;;;13.1;11.9;;;;;;;17.5;59.30078;949.0648;;;;
2019/05/18 09:29:00;;;;;;;12.8;11.6;;;;;;;18.08;60.95313;949.0545;;;;
2019/05/18 09:31:25;;;;;;;13.9;12.6;;;;;;;18.05;57.75586;948.9594;;;;
2019/05/18 09:33:55;;;;;;;13;11.8;;;;;;;18.32;56.99316;948.9313;;;;
2019/05/18 09:36:22;;;;;;;12.5;11.4;;;;;;;18.59;58.84961;948.9497;;;;
2019/05/18 09:38:45;;;;;;;13.9;12.5;;;;;;;18.3;57.38867;948.9777;;;;
2019/05/18 09:41:30;;;;;;;13.2;12;;;;;;;18.34;57.1709;948.9847;;;;
2019/05/18 09:44:05;;;;;;;12.2;11.1;;;;;;;18.66;59.51758;948.887;;;;
2019/05/18 09:46:30;;;;;;;13;11.7;;;;;;;18.71;58.79492;948.9319;;;;
2019/05/18 09:48:56;;;;;;;14.5;13.1;;;;;;;18.01;60.22656;948.9612;;;;
2019/05/18 09:51:20;;;;;;;14.5;13;;;;;;;18.3;57.94141;948.9038;;;;
2019/05/18 09:53:46;;;;;;;13.3;11.2;;;;;;;18.87;58.02832;948.9329;;;;
2019/05/18 09:56:11;;;;;;;13.2;12;;;;;;;18.2;56.02539;948.9192;;;;
2019/05/18 09:58:36;;;;;;;13;11.8;;;;;;;18.22;59.375;948.9375;;;;
2019/05/18 10:01:01;;;;;;;12.8;11.5;;;;;;;18.43;56.06543;948.9446;;;;
2019/05/18 10:03:26;;;;;;;12.3;11.2;;;;;;;19.11;53.82227;948.9604;;;;
2019/05/18 10:05:52;;;;;;;11.9;10.8;;;;;;;19.69;53.15234;948.98;;;;
2019/05/18 10:08:17;;;;;;;12;10.9;;;;;;;18.71;54.82227;948.9397;;;;
2019/05/18 10:10:42;;;;;;;12.8;11.5;;;;;;;18.99;57.85352;948.9705;;;;
2019/05/18 10:13:10;;;;;;;10.9;9.9;;;;;;;19.68;53.10352;948.9904;;;;
2019/05/18 10:15:35;;;;;;;11;9.9;;;;;;;19.89;54.07324;948.9651;;;;
2019/05/18 10:18:01;;;;;;;10.3;9.4;;;;;;;20.35;52.08594;948.9389;;;;
2019/05/18 10:20:26;;;;;;;10.5;9.6;;;;;;;20.15;56.29688;948.9376;;;;
2019/05/18 10:22:51;;;;;;;10.3;9.3;;;;;;;20.15;53.27734;948.9895;;;;
2019/05/18 10:25:18;;;;;;;8.2;7.5;;;;;;;20.6;51.96289;948.9592;;;;
2019/05/18 10:27:43;;;;;;;8.3;7.5;;;;;;;20.59;52.02148;949.0256;;;;
2019/05/18 10:30:23;;;;;;;9;8.2;;;;;;;20.02;50.78613;948.9794;;;;
2019/05/18 10:32:49;;;;;;;8.1;7.4;;;;;;;20.62;47.18262;948.8734;;;;
2019/05/18 10:35:14;;;;;;;8.3;7.6;;;;;;;21.01;53.01367;948.9316;;;;
2019/05/18 10:37:47;;;;;;;8.6;7.8;;;;;;;21.46;46.62109;948.9439;;;;
2019/05/18 10:40:13;;;;;;;8.8;8;;;;;;;21.11;50.83984;948.928;;;;
2019/05/18 10:42:39;;;;;;;9.5;8.7;;;;;;;21.81;49.61816;948.9278;;;;
2019/05/18 10:45:09;;;;;;;8.6;7.8;;;;;;;21.95;50.21387;948.8875;;;;
2019/05/18 10:47:34;;;;;;;10.1;9.1;;;;;;;21.93;52.53125;948.8434;;;;
2019/05/18 10:50:11;;;;;;;11;9.9;;;;;;;21.94;54.12207;948.8537;;;;
2019/05/18 10:52:37;;;;;;;11.8;9.5;;;;;;;22.04;49.7627;948.9097;;;;
2019/05/18 10:55:01;;;;;;;10;9.1;;;;;;;21.61;51.0625;948.8403;;;;
2019/05/18 10:57:26;;;;;;;10;9;;;;;;;22.24;51.8584;948.7903;;;;
2019/05/18 10:59:51;;;;;;;10.2;9.3;;;;;;;22.02;50.15137;948.7313;;;;
2019/05/18 11:02:16;;;;;;;12.2;11.1;;;;;;;23.3;44.70117;948.7762;;;;
2019/05/18 11:04:42;;;;;;;11.4;10.3;;;;;;;22.88;49.58398;948.7356;;;;
2019/05/18 11:07:07;;;;;;;10.4;9.4;;;;;;;22.63;46.18652;948.6804;;;;
2019/05/18 11:09:34;;;;;;;10;9.2;;;;;;;21.46;53.11523;948.7004;;;;
2019/05/18 11:11:59;;;;;;;9.4;8.5;;;;;;;21.51;49.34668;948.6445;;;;
2019/05/18 11:14:24;;;;;;;10.2;9.2;;;;;;;20.29;51.50195;948.6021;;;;
2019/05/18 11:16:52;;;;;;;9.4;8.5;;;;;;;21.34;52.03711;948.6298;;;;
2019/05/18 11:19:17;;;;;;;10.6;9.6;;;;;;;22.1;52.00879;948.605;;;;
2019/05/18 11:21:42;;;;;;;10.7;9.7;;;;;;;22.56;46.30957;948.5578;;;;
2019/05/18 11:24:08;;;;;;;8.4;7.6;;;;;;;23.55;44.11914;948.5672;;;;
2019/05/18 11:26:33;;;;;;;9.5;8.6;;;;;;;23.04;45.64746;948.5045;;;;
2019/05/18 11:28:58;;;;;;;8;7.3;;;;;;;23.67;44.28613;948.572;;;;
2019/05/18 11:31:26;;;;;;;9.1;8.2;;;;;;;22.64;44.90723;948.5472;;;;
2019/05/18 11:33:51;;;;;;;8.9;8.1;;;;;;;22.71;44.65234;948.4752;;;;
2019/05/18 11:36:17;;;;;;;10.4;9.5;;;;;;;22.85;43.82422;948.4333;;;;
2019/05/18 11:38:42;;;;;;;10.6;9.7;;;;;;;22.22;46.4043;948.42;;;;
2019/05/18 11:41:16;;;;;;;9.1;7.5;;;;;;;23.7;45.68066;948.3669;;;;
2019/05/18 11:43:41;;;;;;;9;8.2;;;;;;;23.73;44.30371;948.4269;;;;
2019/05/18 11:46:08;;;;;;;9.1;7.9;;;;;;;24.36;45.7959;948.4662;;;;
2019/05/18 11:48:34;;;;;;;8.9;8;;;;;;;22.76;44.88379;948.4402;;;;
2019/05/18 11:51:03;;;;;;;9.1;8.3;;;;;;;22.77;47.03223;948.4034;;;;
2019/05/18 11:53:37;;;;;;;10.2;9.3;;;;;;;21.98;48.01465;948.399;;;;
2019/05/18 11:56:02;;;;;;;9.1;8.3;;;;;;;23.85;44.95801;948.3617;;;;
2019/05/18 11:58:27;;;;;;;10.9;9.9;;;;;;;23.18;43.08496;948.3239;;;;
2019/05/18 12:00:52;;;;;;;9.9;8.9;;;;;;;23.92;44.97656;948.428;;;;
2019/05/18 12:03:20;;;;;;;8.9;8;;;;;;;24.39;42.64355;948.4138;;;;
2019/05/18 12:05:51;;;;;;;8.2;7.5;;;;;;;23.71;44.34863;948.4085;;;;
2019/05/18 12:08:41;;;;;;;8.8;7.9;;;;;;;23.13;45.7041;948.4324;;;;
2019/05/18 12:11:09;;;;;;;7.6;7;;;;;;;22.13;47.2959;948.4097;;;;
2019/05/18 12:13:34;;;;;;;7.7;6.9;;;;;;;23.65;46.54297;948.3489;;;;
2019/05/18 12:16:01;;;;;;;8.6;7.9;;;;;;;24.52;42.64355;948.3719;;;;
2019/05/18 12:18:26;;;;;;;9;8.2;;;;;;;24.89;42.98828;948.3892;;;;
2019/05/18 12:20:51;;;;;;;8.8;8;;;;;;;24.47;41.38867;948.3201;;;;
2019/05/18 12:23:17;;;;;;;8.9;8.1;;;;;;;24.42;42.7041;948.2906;;;;
2019/05/18 12:25:42;;;;;;;8.1;7.4;;;;;;;25.55;40.93848;948.2724;;;;
2019/05/18 12:28:07;;;;;;;7.9;7.2;;;;;;;24.29;41.00293;948.3438;;;;
2019/05/18 12:30:33;;;;;;;7.2;6.6;;;;;;;23.11;42.95996;948.2447;;;;
2019/05/18 12:32:58;;;;;;;6.7;6.1;;;;;;;23.29;41.30176;948.2255;;;;
2019/05/18 12:35:24;;;;;;;6.5;5.9;;;;;;;22.11;44.17773;948.2088;;;;
2019/05/18 12:37:52;;;;;;;7;6.2;;;;;;;22.61;43.34961;948.2003;;;;
2019/05/18 12:40:18;;;;;;;6.7;6.1;;;;;;;22.34;45.9668;948.2075;;;;
2019/05/18 12:42:43;;;;;;;5.8;5.2;;;;;;;22.53;45.38281;948.2008;;;;
2019/05/18 12:45:08;;;;;;;6.7;5.9;;;;;;;22.12;44.02441;948.1765;;;;
2019/05/18 12:47:53;;;;;;;6.6;6;;;;;;;21.7;44.25586;948.1476;;;;
2019/05/18 12:50:22;;;;;;;6.8;6.1;;;;;;;22.43;43.26172;948.1447;;;;
2019/05/18 12:52:47;;;;;;;6.3;5.7;;;;;;;22.32;43.22656;948.2076;;;;
2019/05/18 12:55:12;;;;;;;7.3;6.6;;;;;;;21.76;44.64063;948.1164;;;;
2019/05/18 12:57:37;;;;;;;6.7;6.1;;;;;;;21.94;43.06055;948.033;;;;
2019/05/18 13:00:06;;;;;;;8.4;5.4;;;;;;;22.07;44.94434;948.0928;;;;
2019/05/18 13:02:32;;;;;;;5.1;4.6;;;;;;;23.49;41.36816;948.0949;;;;
2019/05/18 13:05:11;;;;;;;5.3;4.8;;;;;;;23;43.37695;948.0728;;;;
2019/05/18 13:07:37;;;;;;;5.5;5;;;;;;;22.46;44.1543;948.0744;;;;
2019/05/18 13:10:12;;;;;;;4.8;4.4;;;;;;;22.9;44.0791;948.0328;;;;
2019/05/18 13:12:53;;;;;;;5.4;4.9;;;;;;;23.42;43.95215;947.9897;;;;
2019/05/18 13:15:18;;;;;;;6.4;5.8;;;;;;;24.03;38.61133;947.9238;;;;
2019/05/18 13:17:44;;;;;;;6.1;5.5;;;;;;;23.03;40.76855;947.8834;;;;
2019/05/18 13:20:23;;;;;;;5.1;4.6;;;;;;;24.04;41.93066;947.9319;;;;
2019/05/18 13:22:48;;;;;;;5.8;5.2;;;;;;;23.3;40.79199;947.8808;;;;
2019/05/18 13:25:15;;;;;;;4.9;4.3;;;;;;;22.71;42.56445;947.8753;;;;
2019/05/18 13:27:42;;;;;;;6.4;4.1;;;;;;;22.37;44.67773;947.8425;;;;
2019/05/18 13:30:22;;;;;;;4.6;4.2;;;;;;;22.23;45.19629;947.8976;;;;
2019/05/18 13:32:47;;;;;;;5.5;4.3;;;;;;;21.84;42.15039;947.8768;;;;
2019/05/18 13:35:13;;;;;;;4.7;4.2;;;;;;;21.92;43.95801;947.8417;;;;
2019/05/18 13:37:38;;;;;;;4.6;3.9;;;;;;;21.64;44.13086;947.8415;;;;
2019/05/18 13:40:03;;;;;;;4.7;4.2;;;;;;;21.33;46.69043;947.845;;;;
2019/05/18 13:42:28;;;;;;;4.1;3.7;;;;;;;21.37;45.61914;947.8035;;;;
2019/05/18 13:44:53;;;;;;;5.4;4.1;;;;;;;21.1;44.19531;947.8195;;;;
2019/05/18 13:47:20;;;;;;;3.9;3.6;;;;;;;21.41;44.64063;947.7502;;;;
2019/05/18 13:49:46;;;;;;;4.6;3.9;;;;;;;21.52;45.12598;947.783;;;;
2019/05/18 13:52:11;;;;;;;5.9;3.7;;;;;;;21.38;46.49512;947.8063;;;;
2019/05/18 13:54:37;;;;;;;3.5;3.2;;;;;;;22.6;45.05762;947.7936;;;;
2019/05/18 13:57:02;;;;;;;4.4;4;;;;;;;22.92;43.27344;947.73;;;;
2019/05/18 13:59:31;;;;;;;5.6;4.8;;;;;;;23.35;43.33984;947.6923;;;;
2019/05/18 14:01:57;;;;;;;5.1;4.4;;;;;;;23.66;41.93066;947.7244;;;;
2019/05/18 14:04:31;;;;;;;4.2;3.8;;;;;;;23.21;41.02148;947.675;;;;
2019/05/18 14:06:56;;;;;;;5.1;2.9;;;;;;;23.3;38.58301;947.6666;;;;
2019/05/18 14:09:21;;;;;;;3.7;2.8;;;;;;;23.07;41.79297;947.5858;;;;
2019/05/18 14:12:01;;;;;;;4.4;3.9;;;;;;;22.83;41.50879;947.5017;;;;
2019/05/18 14:14:26;;;;;;;4.1;3.6;;;;;;;23.14;40.9082;947.5513;;;;
2019/05/18 14:16:52;;;;;;;3.5;3.2;;;;;;;22.53;42.38184;947.5577;;;;
2019/05/18 14:19:16;;;;;;;4.3;3.6;;;;;;;23.05;42.30176;947.5114;;;;
2019/05/18 14:21:42;;;;;;;4.9;3.7;;;;;;;22.71;42.73047;947.5139;;;;
2019/05/18 14:24:07;;;;;;;4.3;3.9;;;;;;;22.91;42.69141;947.4405;;;;
2019/05/18 14:26:33;;;;;;;3.6;3.3;;;;;;;23.35;42.04395;947.4756;;;;
2019/05/18 14:28:59;;;;;;;5.4;3.1;;;;;;;22.58;42.36328;947.4756;;;;
2019/05/18 14:31:23;;;;;;;3.8;3.4;;;;;;;22.79;41.25586;947.4509;;;;
2019/05/18 14:33:51;;;;;;;3.6;3;;;;;;;23.21;39.94043;947.4701;;;;
2019/05/18 14:36:16;;;;;;;4.3;3.3;;;;;;;22.95;40.4873;947.4507;;;;
2019/05/18 14:38:41;;;;;;;3.5;2.5;;;;;;;22.9;41.78809;947.4888;;;;
2019/05/18 14:41:06;;;;;;;2.6;2.4;;;;;;;22.63;41.07422;947.5328;;;;
2019/05/18 14:43:31;;;;;;;3.3;2.5;;;;;;;22.86;36.6582;947.4391;;;;
2019/05/18 14:45:56;;;;;;;2.7;2.5;;;;;;;22.97;37.66406;947.4817;;;;
2019/05/18 14:48:22;;;;;;;2.9;2.6;;;;;;;22.52;38.33691;947.5122;;;;
2019/05/18 14:50:46;;;;;;;5;2.5;;;;;;;22.65;38.7998;947.5325;;;;
2019/05/18 14:53:15;;;;;;;2.5;2.3;;;;;;;22.62;37.88281;947.5822;;;;
2019/05/18 14:55:40;;;;;;;2.9;2.4;;;;;;;22.71;39.66992;947.4829;;;;
2019/05/18 14:58:05;;;;;;;2.9;2.6;;;;;;;23.34;37.50488;947.5776;;;;
2019/05/18 15:00:30;;;;;;;3.4;3.1;;;;;;;22.5;38.94043;947.5541;;;;
2019/05/18 15:02:55;;;;;;;5.2;3.4;;;;;;;21.76;42.64063;947.5381;;;;
2019/05/18 15:05:20;;;;;;;3.8;3.4;;;;;;;22.27;42.01367;947.5861;;;;
2019/05/18 15:07:46;;;;;;;4.2;3.7;;;;;;;22.06;42.22949;947.4963;;;;
2019/05/18 15:10:11;;;;;;;5.5;4.6;;;;;;;21.87;43.68066;947.55;;;;
2019/05/18 15:12:38;;;;;;;5.2;4.7;;;;;;;22.3;41.10352;947.5506;;;;
2019/05/18 15:15:04;;;;;;;4.7;4.3;;;;;;;22.32;42.06543;947.5377;;;;
2019/05/18 15:17:29;;;;;;;6;4;;;;;;;22.32;41.45996;947.5429;;;;
2019/05/18 15:19:54;;;;;;;3.8;3.1;;;;;;;22.72;39.57617;947.5128;;;;
2019/05/18 15:22:40;;;;;;;4.7;3.2;;;;;;;22.41;39.12207;947.4878;;;;
2019/05/18 15:25:06;;;;;;;3.6;2.7;;;;;;;22.71;38.88672;947.4487;;;;